sensor_id;sensor_type;location;lat;lon;timestamp;P1;durP1;ratioP1;P2;durP2;ratioP2
4794;SDS011;2411;47.060;15.064;2022-08-23T00:01:18;1.40;;;1.30;;
4794;SDS011;2411;47.060;15.064;2022-08-23T00:03:58;1.47;;;1.37;;
4794;SDS011;2411;47.060;15.064;2022-08-23T00:06:26;1.30;;;1.30;;
4794;SDS011;2411;47.060;15.064;2022-08-23T00:08:54;1.93;;;1.10;;
4794;SDS011;2411;47.060;15.064;2022-08-23T00:13:56;1.23;;;1.13;;
4794;SDS011;2411;47.060;15.064;2022-08-23T00:16:25;1.53;;;1.20;;
4794;SDS011;2411;47.060;15.064;2022-08-23T00:18:52;1.80;;;1.27;;
4794;SDS011;2411;47.060;15.064;2022-08-23T00:21:20;2.10;;;1.20;;
4794;SDS011;2411;47.060;15.064;2022-08-23T00:23:47;8.63;;;1.30;;
4794;SDS011;2411;47.060;15.064;2022-08-23T00:26:14;1.30;;;1.20;;
4794;SDS011;2411;47.060;15.064;2022-08-23T00:28:41;2.07;;;1.20;;
4794;SDS011;2411;47.060;15.064;2022-08-23T00:31:08;1.23;;;1.13;;
4794;SDS011;2411;47.060;15.064;2022-08-23T00:33:35;1.33;;;1.23;;
4794;SDS011;2411;47.060;15.064;2022-08-23T00:36:02;1.40;;;1.30;;
4794;SDS011;2411;47.060;15.064;2022-08-23T00:38:29;2.20;;;1.40;;
4794;SDS011;2411;47.060;15.064;2022-08-23T00:41:00;3.43;;;1.37;;
4794;SDS011;2411;47.060;15.064;2022-08-23T00:43:29;1.50;;;1.40;;
4794;SDS011;2411;47.060;15.064;2022-08-23T00:46:33;1.30;;;1.27;;
4794;SDS011;2411;47.060;15.064;2022-08-23T00:49:22;1.47;;;1.37;;
4794;SDS011;2411;47.060;15.064;2022-08-23T00:51:52;2.23;;;1.27;;
4794;SDS011;2411;47.060;15.064;2022-08-23T00:54:51;3.80;;;1.70;;
4794;SDS011;2411;47.060;15.064;2022-08-23T00:57:21;10.43;;;1.60;;
4794;SDS011;2411;47.060;15.064;2022-08-23T00:59:48;1.60;;;1.50;;
4794;SDS011;2411;47.060;15.064;2022-08-23T01:02:15;2.10;;;1.97;;
4794;SDS011;2411;47.060;15.064;2022-08-23T01:04:44;1.27;;;1.20;;
4794;SDS011;2411;47.060;15.064;2022-08-23T01:10:00;2.07;;;1.30;;
4794;SDS011;2411;47.060;15.064;2022-08-23T01:12:39;2.37;;;1.77;;
4794;SDS011;2411;47.060;15.064;2022-08-23T01:17:51;1.97;;;1.87;;
4794;SDS011;2411;47.060;15.064;2022-08-23T01:20:23;1.90;;;1.70;;
4794;SDS011;2411;47.060;15.064;2022-08-23T01:25:25;3.23;;;1.60;;
4794;SDS011;2411;47.060;15.064;2022-08-23T01:27:55;1.40;;;1.40;;
4794;SDS011;2411;47.060;15.064;2022-08-23T01:30:24;2.67;;;1.20;;
4794;SDS011;2411;47.060;15.064;2022-08-23T01:32:57;1.43;;;1.20;;
4794;SDS011;2411;47.060;15.064;2022-08-23T01:35:38;1.53;;;1.40;;
4794;SDS011;2411;47.060;15.064;2022-08-23T01:38:07;2.20;;;1.20;;
4794;SDS011;2411;47.060;15.064;2022-08-23T01:40:35;2.03;;;1.50;;
4794;SDS011;2411;47.060;15.064;2022-08-23T01:43:03;1.33;;;1.33;;
4794;SDS011;2411;47.060;15.064;2022-08-23T01:45:32;1.73;;;1.53;;
4794;SDS011;2411;47.060;15.064;2022-08-23T01:48:00;2.63;;;1.50;;
4794;SDS011;2411;47.060;15.064;2022-08-23T01:50:29;1.43;;;1.37;;
4794;SDS011;2411;47.060;15.064;2022-08-23T01:52:56;1.30;;;1.20;;
4794;SDS011;2411;47.060;15.064;2022-08-23T01:55:24;3.20;;;1.50;;
4794;SDS011;2411;47.060;15.064;2022-08-23T01:57:53;1.03;;;1.03;;
4794;SDS011;2411;47.060;15.064;2022-08-23T02:00:23;1.73;;;1.23;;
4794;SDS011;2411;47.060;15.064;2022-08-23T02:02:53;1.50;;;1.40;;
4794;SDS011;2411;47.060;15.064;2022-08-23T02:05:20;1.53;;;1.43;;
4794;SDS011;2411;47.060;15.064;2022-08-23T02:07:47;1.50;;;1.40;;
4794;SDS011;2411;47.060;15.064;2022-08-23T02:10:14;1.60;;;1.50;;
4794;SDS011;2411;47.060;15.064;2022-08-23T02:12:42;1.10;;;1.10;;
4794;SDS011;2411;47.060;15.064;2022-08-23T02:15:09;1.37;;;1.37;;
4794;SDS011;2411;47.060;15.064;2022-08-23T02:17:36;1.67;;;1.57;;
4794;SDS011;2411;47.060;15.064;2022-08-23T02:20:03;2.50;;;1.93;;
4794;SDS011;2411;47.060;15.064;2022-08-23T02:22:31;3.17;;;1.60;;
4794;SDS011;2411;47.060;15.064;2022-08-23T02:24:59;1.60;;;1.50;;
4794;SDS011;2411;47.060;15.064;2022-08-23T02:27:26;1.23;;;1.13;;
4794;SDS011;2411;47.060;15.064;2022-08-23T02:29:53;1.87;;;1.27;;
4794;SDS011;2411;47.060;15.064;2022-08-23T02:32:21;1.80;;;1.70;;
4794;SDS011;2411;47.060;15.064;2022-08-23T02:34:52;1.43;;;1.40;;
4794;SDS011;2411;47.060;15.064;2022-08-23T02:37:30;3.70;;;1.53;;
4794;SDS011;2411;47.060;15.064;2022-08-23T02:39:57;1.73;;;1.40;;
4794;SDS011;2411;47.060;15.064;2022-08-23T02:42:24;1.73;;;1.40;;
4794;SDS011;2411;47.060;15.064;2022-08-23T02:44:51;1.20;;;1.10;;
4794;SDS011;2411;47.060;15.064;2022-08-23T02:47:18;3.23;;;1.30;;
4794;SDS011;2411;47.060;15.064;2022-08-23T02:49:45;0.90;;;0.90;;
4794;SDS011;2411;47.060;15.064;2022-08-23T02:52:12;0.90;;;0.90;;
4794;SDS011;2411;47.060;15.064;2022-08-23T02:54:39;2.03;;;0.87;;
4794;SDS011;2411;47.060;15.064;2022-08-23T02:57:06;1.23;;;0.70;;
4794;SDS011;2411;47.060;15.064;2022-08-23T02:59:32;0.70;;;0.70;;
4794;SDS011;2411;47.060;15.064;2022-08-23T03:02:00;0.83;;;0.83;;
4794;SDS011;2411;47.060;15.064;2022-08-23T03:04:27;1.10;;;0.80;;
4794;SDS011;2411;47.060;15.064;2022-08-23T03:06:54;0.70;;;0.70;;
4794;SDS011;2411;47.060;15.064;2022-08-23T03:09:21;1.30;;;0.60;;
4794;SDS011;2411;47.060;15.064;2022-08-23T03:11:48;0.67;;;0.60;;
4794;SDS011;2411;47.060;15.064;2022-08-23T03:14:15;0.70;;;0.70;;
4794;SDS011;2411;47.060;15.064;2022-08-23T03:16:42;1.10;;;1.00;;
4794;SDS011;2411;47.060;15.064;2022-08-23T03:19:09;0.70;;;0.70;;
4794;SDS011;2411;47.060;15.064;2022-08-23T03:21:37;3.17;;;0.80;;
4794;SDS011;2411;47.060;15.064;2022-08-23T03:24:04;0.90;;;0.90;;
4794;SDS011;2411;47.060;15.064;2022-08-23T03:26:35;0.90;;;0.90;;
4794;SDS011;2411;47.060;15.064;2022-08-23T03:29:03;1.20;;;1.13;;
4794;SDS011;2411;47.060;15.064;2022-08-23T03:31:30;1.60;;;1.50;;
4794;SDS011;2411;47.060;15.064;2022-08-23T03:33:56;1.53;;;1.40;;
4794;SDS011;2411;47.060;15.064;2022-08-23T03:36:24;1.97;;;1.80;;
4794;SDS011;2411;47.060;15.064;2022-08-23T03:38:53;2.00;;;1.90;;
4794;SDS011;2411;47.060;15.064;2022-08-23T03:41:21;2.63;;;2.20;;
4794;SDS011;2411;47.060;15.064;2022-08-23T03:43:49;2.50;;;2.30;;
4794;SDS011;2411;47.060;15.064;2022-08-23T03:46:15;2.00;;;1.73;;
4794;SDS011;2411;47.060;15.064;2022-08-23T03:48:52;2.13;;;1.87;;
4794;SDS011;2411;47.060;15.064;2022-08-23T03:51:22;3.37;;;2.20;;
4794;SDS011;2411;47.060;15.064;2022-08-23T03:53:49;2.40;;;1.63;;
4794;SDS011;2411;47.060;15.064;2022-08-23T03:56:30;2.00;;;1.90;;
4794;SDS011;2411;47.060;15.064;2022-08-23T03:58:59;2.17;;;2.07;;
4794;SDS011;2411;47.060;15.064;2022-08-23T04:01:33;1.63;;;1.57;;
4794;SDS011;2411;47.060;15.064;2022-08-23T04:04:02;1.60;;;1.50;;
4794;SDS011;2411;47.060;15.064;2022-08-23T04:06:29;1.17;;;1.10;;
4794;SDS011;2411;47.060;15.064;2022-08-23T04:08:58;1.80;;;1.70;;
4794;SDS011;2411;47.060;15.064;2022-08-23T04:11:25;1.67;;;1.57;;
4794;SDS011;2411;47.060;15.064;2022-08-23T04:13:53;1.40;;;1.40;;
4794;SDS011;2411;47.060;15.064;2022-08-23T04:16:20;2.60;;;1.40;;
4794;SDS011;2411;47.060;15.064;2022-08-23T04:18:47;2.43;;;1.40;;
4794;SDS011;2411;47.060;15.064;2022-08-23T04:21:16;1.57;;;1.47;;
4794;SDS011;2411;47.060;15.064;2022-08-23T04:23:45;1.43;;;1.43;;
4794;SDS011;2411;47.060;15.064;2022-08-23T04:26:12;1.40;;;1.30;;
4794;SDS011;2411;47.060;15.064;2022-08-23T04:28:38;1.30;;;1.20;;
4794;SDS011;2411;47.060;15.064;2022-08-23T04:31:06;1.40;;;1.03;;
4794;SDS011;2411;47.060;15.064;2022-08-23T04:33:33;5.27;;;1.30;;
4794;SDS011;2411;47.060;15.064;2022-08-23T04:36:05;1.20;;;1.20;;
4794;SDS011;2411;47.060;15.064;2022-08-23T04:38:32;1.70;;;1.60;;
4794;SDS011;2411;47.060;15.064;2022-08-23T04:40:59;1.50;;;1.40;;
4794;SDS011;2411;47.060;15.064;2022-08-23T04:43:45;1.30;;;1.30;;
4794;SDS011;2411;47.060;15.064;2022-08-23T04:46:12;2.70;;;1.53;;
4794;SDS011;2411;47.060;15.064;2022-08-23T04:48:43;1.10;;;1.10;;
4794;SDS011;2411;47.060;15.064;2022-08-23T04:51:12;3.37;;;1.40;;
4794;SDS011;2411;47.060;15.064;2022-08-23T04:53:39;2.50;;;1.77;;
4794;SDS011;2411;47.060;15.064;2022-08-23T04:56:06;2.50;;;1.33;;
4794;SDS011;2411;47.060;15.064;2022-08-23T04:58:34;2.20;;;2.10;;
4794;SDS011;2411;47.060;15.064;2022-08-23T05:01:03;2.40;;;2.20;;
4794;SDS011;2411;47.060;15.064;2022-08-23T05:03:33;4.10;;;2.70;;
4794;SDS011;2411;47.060;15.064;2022-08-23T05:06:00;2.87;;;2.67;;
4794;SDS011;2411;47.060;15.064;2022-08-23T05:08:29;2.53;;;2.33;;
4794;SDS011;2411;47.060;15.064;2022-08-23T05:11:00;2.87;;;2.60;;
4794;SDS011;2411;47.060;15.064;2022-08-23T05:13:29;3.10;;;2.80;;
4794;SDS011;2411;47.060;15.064;2022-08-23T05:15:59;2.83;;;2.70;;
4794;SDS011;2411;47.060;15.064;2022-08-23T05:18:27;2.87;;;2.67;;
4794;SDS011;2411;47.060;15.064;2022-08-23T05:20:54;3.30;;;2.30;;
4794;SDS011;2411;47.060;15.064;2022-08-23T05:23:21;2.30;;;2.20;;
4794;SDS011;2411;47.060;15.064;2022-08-23T05:25:57;2.60;;;2.50;;
4794;SDS011;2411;47.060;15.064;2022-08-23T05:28:25;4.27;;;3.00;;
4794;SDS011;2411;47.060;15.064;2022-08-23T05:31:05;2.97;;;2.77;;
4794;SDS011;2411;47.060;15.064;2022-08-23T05:33:37;2.70;;;2.60;;
4794;SDS011;2411;47.060;15.064;2022-08-23T05:36:06;3.07;;;2.87;;
4794;SDS011;2411;47.060;15.064;2022-08-23T05:38:34;3.07;;;2.87;;
4794;SDS011;2411;47.060;15.064;2022-08-23T05:41:01;4.40;;;2.83;;
4794;SDS011;2411;47.060;15.064;2022-08-23T05:43:30;3.27;;;2.93;;
4794;SDS011;2411;47.060;15.064;2022-08-23T05:45:58;7.80;;;3.13;;
4794;SDS011;2411;47.060;15.064;2022-08-23T05:48:38;4.30;;;2.80;;
4794;SDS011;2411;47.060;15.064;2022-08-23T05:51:26;3.50;;;3.30;;
4794;SDS011;2411;47.060;15.064;2022-08-23T05:53:57;3.30;;;3.10;;
4794;SDS011;2411;47.060;15.064;2022-08-23T05:56:33;3.10;;;2.90;;
4794;SDS011;2411;47.060;15.064;2022-08-23T05:59:11;3.13;;;2.93;;
4794;SDS011;2411;47.060;15.064;2022-08-23T06:01:41;2.60;;;2.50;;
4794;SDS011;2411;47.060;15.064;2022-08-23T06:04:09;3.00;;;2.70;;
4794;SDS011;2411;47.060;15.064;2022-08-23T06:06:38;3.30;;;3.10;;
4794;SDS011;2411;47.060;15.064;2022-08-23T06:09:08;3.13;;;2.90;;
4794;SDS011;2411;47.060;15.064;2022-08-23T06:11:37;3.30;;;3.10;;
4794;SDS011;2411;47.060;15.064;2022-08-23T06:14:05;3.30;;;2.83;;
4794;SDS011;2411;47.060;15.064;2022-08-23T06:16:42;3.10;;;2.90;;
4794;SDS011;2411;47.060;15.064;2022-08-23T06:19:12;2.50;;;2.40;;
4794;SDS011;2411;47.060;15.064;2022-08-23T06:21:40;3.90;;;3.60;;
4794;SDS011;2411;47.060;15.064;2022-08-23T06:24:08;3.03;;;2.87;;
4794;SDS011;2411;47.060;15.064;2022-08-23T06:26:37;2.77;;;2.57;;
4794;SDS011;2411;47.060;15.064;2022-08-23T06:29:11;3.30;;;3.10;;
4794;SDS011;2411;47.060;15.064;2022-08-23T06:31:41;4.87;;;3.70;;
4794;SDS011;2411;47.060;15.064;2022-08-23T06:34:26;3.23;;;3.10;;
4794;SDS011;2411;47.060;15.064;2022-08-23T06:36:59;3.93;;;3.30;;
4794;SDS011;2411;47.060;15.064;2022-08-23T06:39:29;3.13;;;2.83;;
4794;SDS011;2411;47.060;15.064;2022-08-23T06:42:05;2.97;;;2.77;;
4794;SDS011;2411;47.060;15.064;2022-08-23T06:44:54;2.40;;;2.30;;
4794;SDS011;2411;47.060;15.064;2022-08-23T06:47:21;2.60;;;2.50;;
4794;SDS011;2411;47.060;15.064;2022-08-23T06:49:49;2.67;;;2.50;;
4794;SDS011;2411;47.060;15.064;2022-08-23T06:52:23;2.50;;;2.30;;
4794;SDS011;2411;47.060;15.064;2022-08-23T06:54:50;2.40;;;2.13;;
4794;SDS011;2411;47.060;15.064;2022-08-23T06:57:18;3.93;;;2.03;;
4794;SDS011;2411;47.060;15.064;2022-08-23T06:59:47;2.23;;;2.13;;
4794;SDS011;2411;47.060;15.064;2022-08-23T07:02:15;4.40;;;1.90;;
4794;SDS011;2411;47.060;15.064;2022-08-23T07:04:42;2.10;;;1.70;;
4794;SDS011;2411;47.060;15.064;2022-08-23T07:07:09;1.33;;;1.23;;
4794;SDS011;2411;47.060;15.064;2022-08-23T07:09:38;3.83;;;1.50;;
4794;SDS011;2411;47.060;15.064;2022-08-23T07:12:05;1.00;;;1.00;;
4794;SDS011;2411;47.060;15.064;2022-08-23T07:14:32;2.00;;;1.13;;
4794;SDS011;2411;47.060;15.064;2022-08-23T07:17:01;2.10;;;1.23;;
4794;SDS011;2411;47.060;15.064;2022-08-23T07:19:29;2.27;;;0.97;;
4794;SDS011;2411;47.060;15.064;2022-08-23T07:21:58;1.00;;;1.00;;
4794;SDS011;2411;47.060;15.064;2022-08-23T07:24:27;1.67;;;1.07;;
4794;SDS011;2411;47.060;15.064;2022-08-23T07:26:59;1.63;;;1.43;;
4794;SDS011;2411;47.060;15.064;2022-08-23T07:29:26;0.83;;;0.83;;
4794;SDS011;2411;47.060;15.064;2022-08-23T07:31:55;0.70;;;0.70;;
4794;SDS011;2411;47.060;15.064;2022-08-23T07:34:23;2.80;;;0.80;;
4794;SDS011;2411;47.060;15.064;2022-08-23T07:36:51;1.20;;;0.70;;
4794;SDS011;2411;47.060;15.064;2022-08-23T07:39:19;1.47;;;0.70;;
4794;SDS011;2411;47.060;15.064;2022-08-23T07:41:48;0.67;;;0.67;;
4794;SDS011;2411;47.060;15.064;2022-08-23T07:44:18;0.90;;;0.67;;
4794;SDS011;2411;47.060;15.064;2022-08-23T07:46:49;1.20;;;0.80;;
4794;SDS011;2411;47.060;15.064;2022-08-23T07:49:16;0.83;;;0.80;;
4794;SDS011;2411;47.060;15.064;2022-08-23T07:51:45;2.20;;;0.70;;
4794;SDS011;2411;47.060;15.064;2022-08-23T07:54:13;5.13;;;0.70;;
4794;SDS011;2411;47.060;15.064;2022-08-23T07:56:40;0.80;;;0.80;;
4794;SDS011;2411;47.060;15.064;2022-08-23T07:59:08;2.10;;;1.00;;
4794;SDS011;2411;47.060;15.064;2022-08-23T08:01:36;0.90;;;0.90;;
4794;SDS011;2411;47.060;15.064;2022-08-23T08:04:03;1.10;;;1.00;;
4794;SDS011;2411;47.060;15.064;2022-08-23T08:06:37;1.07;;;0.97;;
4794;SDS011;2411;47.060;15.064;2022-08-23T08:09:07;1.90;;;1.00;;
4794;SDS011;2411;47.060;15.064;2022-08-23T08:11:35;0.80;;;0.80;;
4794;SDS011;2411;47.060;15.064;2022-08-23T08:14:07;1.20;;;1.20;;
4794;SDS011;2411;47.060;15.064;2022-08-23T08:16:37;1.57;;;1.00;;
4794;SDS011;2411;47.060;15.064;2022-08-23T08:19:07;0.80;;;0.80;;
4794;SDS011;2411;47.060;15.064;2022-08-23T08:21:37;1.53;;;1.10;;
4794;SDS011;2411;47.060;15.064;2022-08-23T08:24:08;1.00;;;0.83;;
4794;SDS011;2411;47.060;15.064;2022-08-23T08:26:36;0.97;;;0.97;;
4794;SDS011;2411;47.060;15.064;2022-08-23T08:29:04;4.93;;;1.20;;
4794;SDS011;2411;47.060;15.064;2022-08-23T08:31:32;1.27;;;0.80;;
4794;SDS011;2411;47.060;15.064;2022-08-23T08:34:01;1.00;;;0.90;;
4794;SDS011;2411;47.060;15.064;2022-08-23T08:39:03;0.87;;;0.80;;
4794;SDS011;2411;47.060;15.064;2022-08-23T08:41:45;1.90;;;1.00;;
4794;SDS011;2411;47.060;15.064;2022-08-23T08:47:13;2.17;;;1.00;;
4794;SDS011;2411;47.060;15.064;2022-08-23T08:52:36;0.80;;;0.80;;
4794;SDS011;2411;47.060;15.064;2022-08-23T08:55:14;1.13;;;0.80;;
4794;SDS011;2411;47.060;15.064;2022-08-23T08:57:46;0.60;;;0.60;;
4794;SDS011;2411;47.060;15.064;2022-08-23T09:00:19;0.63;;;0.63;;
4794;SDS011;2411;47.060;15.064;2022-08-23T09:02:48;0.80;;;0.70;;
4794;SDS011;2411;47.060;15.064;2022-08-23T09:05:18;0.70;;;0.67;;
4794;SDS011;2411;47.060;15.064;2022-08-23T09:16:50;0.80;;;0.80;;
4794;SDS011;2411;47.060;15.064;2022-08-23T09:19:41;0.60;;;0.60;;
4794;SDS011;2411;47.060;15.064;2022-08-23T09:22:12;0.80;;;0.67;;
4794;SDS011;2411;47.060;15.064;2022-08-23T09:24:43;0.70;;;0.70;;
4794;SDS011;2411;47.060;15.064;2022-08-23T09:27:10;0.87;;;0.70;;
4794;SDS011;2411;47.060;15.064;2022-08-23T09:29:39;1.10;;;0.90;;
4794;SDS011;2411;47.060;15.064;2022-08-23T09:32:31;0.60;;;0.60;;
4794;SDS011;2411;47.060;15.064;2022-08-23T09:35:17;0.53;;;0.53;;
4794;SDS011;2411;47.060;15.064;2022-08-23T09:43:04;0.90;;;0.63;;
4794;SDS011;2411;47.060;15.064;2022-08-23T09:45:39;0.50;;;0.50;;
4794;SDS011;2411;47.060;15.064;2022-08-23T09:51:17;0.93;;;0.63;;
4794;SDS011;2411;47.060;15.064;2022-08-23T09:53:51;0.60;;;0.60;;
4794;SDS011;2411;47.060;15.064;2022-08-23T09:56:39;0.70;;;0.70;;
4794;SDS011;2411;47.060;15.064;2022-08-23T10:01:53;0.70;;;0.70;;
4794;SDS011;2411;47.060;15.064;2022-08-23T10:06:55;1.37;;;0.83;;
4794;SDS011;2411;47.060;15.064;2022-08-23T10:09:24;0.60;;;0.60;;
4794;SDS011;2411;47.060;15.064;2022-08-23T10:11:57;0.60;;;0.60;;
4794;SDS011;2411;47.060;15.064;2022-08-23T10:14:26;0.90;;;0.90;;
4794;SDS011;2411;47.060;15.064;2022-08-23T10:22:28;0.87;;;0.77;;
4794;SDS011;2411;47.060;15.064;2022-08-23T10:25:08;0.80;;;0.80;;
4794;SDS011;2411;47.060;15.064;2022-08-23T10:34:23;0.97;;;0.70;;
4794;SDS011;2411;47.060;15.064;2022-08-23T10:39:44;2.13;;;0.90;;
4794;SDS011;2411;47.060;15.064;2022-08-23T10:42:42;1.73;;;1.00;;
4794;SDS011;2411;47.060;15.064;2022-08-23T10:45:17;1.03;;;0.70;;
4794;SDS011;2411;47.060;15.064;2022-08-23T10:51:00;1.90;;;0.90;;
4794;SDS011;2411;47.060;15.064;2022-08-23T10:53:51;1.00;;;0.87;;
4794;SDS011;2411;47.060;15.064;2022-08-23T10:56:31;4.43;;;0.90;;
4794;SDS011;2411;47.060;15.064;2022-08-23T10:59:00;2.03;;;1.00;;
4794;SDS011;2411;47.060;15.064;2022-08-23T11:07:26;2.60;;;1.20;;
4794;SDS011;2411;47.060;15.064;2022-08-23T11:10:14;2.20;;;1.00;;
4794;SDS011;2411;47.060;15.064;2022-08-23T11:23:50;0.73;;;0.73;;
4794;SDS011;2411;47.060;15.064;2022-08-23T11:31:22;1.70;;;1.03;;
4794;SDS011;2411;47.060;15.064;2022-08-23T11:34:01;4.30;;;1.00;;
4794;SDS011;2411;47.060;15.064;2022-08-23T11:37:49;1.07;;;0.80;;
4794;SDS011;2411;47.060;15.064;2022-08-23T11:45:23;1.37;;;0.80;;
4794;SDS011;2411;47.060;15.064;2022-08-23T11:48:16;5.40;;;0.90;;
4794;SDS011;2411;47.060;15.064;2022-08-23T11:54:06;2.00;;;1.17;;
4794;SDS011;2411;47.060;15.064;2022-08-23T12:05:27;1.83;;;0.93;;
4794;SDS011;2411;47.060;15.064;2022-08-23T12:21:29;1.90;;;1.00;;
4794;SDS011;2411;47.060;15.064;2022-08-23T12:32:50;0.70;;;0.67;;
4794;SDS011;2411;47.060;15.064;2022-08-23T12:40:53;1.23;;;0.80;;
4794;SDS011;2411;47.060;15.064;2022-08-23T12:43:23;1.00;;;1.00;;
4794;SDS011;2411;47.060;15.064;2022-08-23T12:45:53;2.90;;;0.70;;
4794;SDS011;2411;47.060;15.064;2022-08-23T12:48:26;1.27;;;0.90;;
4794;SDS011;2411;47.060;15.064;2022-08-23T12:53:33;0.80;;;0.80;;
4794;SDS011;2411;47.060;15.064;2022-08-23T12:56:10;0.80;;;0.80;;
4794;SDS011;2411;47.060;15.064;2022-08-23T12:58:47;0.70;;;0.70;;
4794;SDS011;2411;47.060;15.064;2022-08-23T13:04:03;1.50;;;0.87;;
4794;SDS011;2411;47.060;15.064;2022-08-23T13:06:50;0.80;;;0.80;;
4794;SDS011;2411;47.060;15.064;2022-08-23T13:09:23;3.43;;;1.00;;
4794;SDS011;2411;47.060;15.064;2022-08-23T13:11:57;0.90;;;0.90;;
4794;SDS011;2411;47.060;15.064;2022-08-23T13:22:31;0.87;;;0.77;;
4794;SDS011;2411;47.060;15.064;2022-08-23T13:30:22;1.93;;;1.00;;
4794;SDS011;2411;47.060;15.064;2022-08-23T13:32:59;2.23;;;0.90;;
4794;SDS011;2411;47.060;15.064;2022-08-23T13:35:43;0.80;;;0.80;;
4794;SDS011;2411;47.060;15.064;2022-08-23T13:38:28;0.90;;;0.90;;
4794;SDS011;2411;47.060;15.064;2022-08-23T13:46:18;0.80;;;0.80;;
4794;SDS011;2411;47.060;15.064;2022-08-23T13:54:46;1.27;;;0.73;;
4794;SDS011;2411;47.060;15.064;2022-08-23T13:57:18;1.10;;;1.00;;
4794;SDS011;2411;47.060;15.064;2022-08-23T13:59:53;0.77;;;0.77;;
4794;SDS011;2411;47.060;15.064;2022-08-23T14:02:22;0.90;;;0.90;;
4794;SDS011;2411;47.060;15.064;2022-08-23T14:04:50;1.30;;;1.03;;
4794;SDS011;2411;47.060;15.064;2022-08-23T14:07:17;1.10;;;1.00;;
4794;SDS011;2411;47.060;15.064;2022-08-23T14:09:44;1.23;;;0.83;;
4794;SDS011;2411;47.060;15.064;2022-08-23T14:12:13;1.77;;;1.13;;
4794;SDS011;2411;47.060;15.064;2022-08-23T14:14:43;0.90;;;0.90;;
4794;SDS011;2411;47.060;15.064;2022-08-23T14:17:11;4.40;;;0.90;;
4794;SDS011;2411;47.060;15.064;2022-08-23T14:19:42;1.40;;;1.10;;
4794;SDS011;2411;47.060;15.064;2022-08-23T14:22:32;1.20;;;1.10;;
4794;SDS011;2411;47.060;15.064;2022-08-23T14:24:59;0.83;;;0.83;;
4794;SDS011;2411;47.060;15.064;2022-08-23T14:27:26;1.17;;;0.90;;
4794;SDS011;2411;47.060;15.064;2022-08-23T14:29:53;2.50;;;1.10;;
4794;SDS011;2411;47.060;15.064;2022-08-23T14:32:20;1.53;;;1.10;;
4794;SDS011;2411;47.060;15.064;2022-08-23T14:34:47;3.53;;;1.60;;
4794;SDS011;2411;47.060;15.064;2022-08-23T14:37:14;3.40;;;0.87;;
4794;SDS011;2411;47.060;15.064;2022-08-23T14:40:02;1.13;;;0.90;;
4794;SDS011;2411;47.060;15.064;2022-08-23T14:42:30;3.13;;;0.97;;
4794;SDS011;2411;47.060;15.064;2022-08-23T14:44:57;1.00;;;1.00;;
4794;SDS011;2411;47.060;15.064;2022-08-23T14:47:24;1.13;;;1.13;;
4794;SDS011;2411;47.060;15.064;2022-08-23T14:49:52;2.53;;;1.10;;
4794;SDS011;2411;47.060;15.064;2022-08-23T14:52:19;3.33;;;1.10;;
4794;SDS011;2411;47.060;15.064;2022-08-23T14:54:47;1.27;;;0.90;;
4794;SDS011;2411;47.060;15.064;2022-08-23T14:57:14;2.93;;;1.50;;
4794;SDS011;2411;47.060;15.064;2022-08-23T14:59:42;2.40;;;1.47;;
4794;SDS011;2411;47.060;15.064;2022-08-23T15:02:10;1.47;;;1.37;;
4794;SDS011;2411;47.060;15.064;2022-08-23T15:04:41;1.27;;;1.17;;
4794;SDS011;2411;47.060;15.064;2022-08-23T15:07:08;1.13;;;1.13;;
4794;SDS011;2411;47.060;15.064;2022-08-23T15:09:45;4.83;;;1.10;;
4794;SDS011;2411;47.060;15.064;2022-08-23T15:12:12;2.77;;;1.07;;
4794;SDS011;2411;47.060;15.064;2022-08-23T15:15:00;1.80;;;1.27;;
4794;SDS011;2411;47.060;15.064;2022-08-23T15:17:27;2.40;;;1.30;;
4794;SDS011;2411;47.060;15.064;2022-08-23T15:19:57;2.27;;;1.30;;
4794;SDS011;2411;47.060;15.064;2022-08-23T15:22:24;1.47;;;1.37;;
4794;SDS011;2411;47.060;15.064;2022-08-23T15:24:51;1.87;;;1.00;;
4794;SDS011;2411;47.060;15.064;2022-08-23T15:27:20;1.70;;;1.00;;
4794;SDS011;2411;47.060;15.064;2022-08-23T15:29:48;2.07;;;1.80;;
4794;SDS011;2411;47.060;15.064;2022-08-23T15:32:15;2.80;;;1.53;;
4794;SDS011;2411;47.060;15.064;2022-08-23T15:34:47;4.47;;;1.70;;
4794;SDS011;2411;47.060;15.064;2022-08-23T15:37:14;1.70;;;1.50;;
4794;SDS011;2411;47.060;15.064;2022-08-23T15:39:43;3.83;;;1.20;;
4794;SDS011;2411;47.060;15.064;2022-08-23T15:42:10;3.70;;;2.23;;
4794;SDS011;2411;47.060;15.064;2022-08-23T15:44:45;2.67;;;1.47;;
4794;SDS011;2411;47.060;15.064;2022-08-23T15:47:19;2.70;;;1.50;;
4794;SDS011;2411;47.060;15.064;2022-08-23T15:49:49;4.20;;;1.50;;
4794;SDS011;2411;47.060;15.064;2022-08-23T15:52:16;1.97;;;1.30;;
4794;SDS011;2411;47.060;15.064;2022-08-23T15:54:43;1.47;;;1.37;;
4794;SDS011;2411;47.060;15.064;2022-08-23T15:57:15;1.73;;;1.33;;
4794;SDS011;2411;47.060;15.064;2022-08-23T15:59:45;1.40;;;1.30;;
4794;SDS011;2411;47.060;15.064;2022-08-23T16:02:13;1.93;;;1.40;;
4794;SDS011;2411;47.060;15.064;2022-08-23T16:04:40;1.40;;;1.20;;
4794;SDS011;2411;47.060;15.064;2022-08-23T16:07:08;2.53;;;1.20;;
4794;SDS011;2411;47.060;15.064;2022-08-23T16:09:39;2.60;;;1.27;;
4794;SDS011;2411;47.060;15.064;2022-08-23T16:12:07;1.20;;;1.10;;
4794;SDS011;2411;47.060;15.064;2022-08-23T16:14:35;1.60;;;1.20;;
4794;SDS011;2411;47.060;15.064;2022-08-23T16:17:03;10.20;;;5.87;;
4794;SDS011;2411;47.060;15.064;2022-08-23T16:19:31;1.67;;;1.57;;
4794;SDS011;2411;47.060;15.064;2022-08-23T16:21:58;1.60;;;1.50;;
4794;SDS011;2411;47.060;15.064;2022-08-23T16:24:25;1.73;;;1.23;;
4794;SDS011;2411;47.060;15.064;2022-08-23T16:26:53;2.40;;;1.37;;
4794;SDS011;2411;47.060;15.064;2022-08-23T16:29:20;1.10;;;1.00;;
4794;SDS011;2411;47.060;15.064;2022-08-23T16:31:47;1.40;;;1.30;;
4794;SDS011;2411;47.060;15.064;2022-08-23T16:34:15;2.90;;;1.63;;
4794;SDS011;2411;47.060;15.064;2022-08-23T16:36:44;1.40;;;1.40;;
4794;SDS011;2411;47.060;15.064;2022-08-23T16:39:14;1.40;;;1.40;;
4794;SDS011;2411;47.060;15.064;2022-08-23T16:41:41;3.70;;;1.63;;
4794;SDS011;2411;47.060;15.064;2022-08-23T16:44:08;1.40;;;1.30;;
4794;SDS011;2411;47.060;15.064;2022-08-23T16:46:36;1.60;;;1.50;;
4794;SDS011;2411;47.060;15.064;2022-08-23T16:49:06;2.10;;;1.80;;
4794;SDS011;2411;47.060;15.064;2022-08-23T16:51:34;1.70;;;1.60;;
4794;SDS011;2411;47.060;15.064;2022-08-23T16:54:00;1.67;;;1.57;;
4794;SDS011;2411;47.060;15.064;2022-08-23T16:56:31;1.40;;;1.30;;
4794;SDS011;2411;47.060;15.064;2022-08-23T16:59:00;1.20;;;1.10;;
4794;SDS011;2411;47.060;15.064;2022-08-23T17:01:29;1.57;;;1.47;;
4794;SDS011;2411;47.060;15.064;2022-08-23T17:04:07;1.67;;;1.57;;
4794;SDS011;2411;47.060;15.064;2022-08-23T17:06:34;1.40;;;1.30;;
4794;SDS011;2411;47.060;15.064;2022-08-23T17:09:01;1.60;;;1.50;;
4794;SDS011;2411;47.060;15.064;2022-08-23T17:11:28;1.20;;;1.10;;
4794;SDS011;2411;47.060;15.064;2022-08-23T17:13:58;5.63;;;1.20;;
4794;SDS011;2411;47.060;15.064;2022-08-23T17:16:30;1.50;;;1.40;;
4794;SDS011;2411;47.060;15.064;2022-08-23T17:18:57;2.83;;;1.97;;
4794;SDS011;2411;47.060;15.064;2022-08-23T17:21:24;2.00;;;1.67;;
4794;SDS011;2411;47.060;15.064;2022-08-23T17:23:52;1.73;;;1.47;;
4794;SDS011;2411;47.060;15.064;2022-08-23T17:26:20;2.70;;;1.53;;
4794;SDS011;2411;47.060;15.064;2022-08-23T17:28:47;1.50;;;1.40;;
4794;SDS011;2411;47.060;15.064;2022-08-23T17:31:14;1.93;;;1.50;;
4794;SDS011;2411;47.060;15.064;2022-08-23T17:33:42;2.93;;;1.40;;
4794;SDS011;2411;47.060;15.064;2022-08-23T17:39:07;4.17;;;1.93;;
4794;SDS011;2411;47.060;15.064;2022-08-23T17:41:35;4.80;;;1.60;;
4794;SDS011;2411;47.060;15.064;2022-08-23T17:44:08;3.07;;;1.50;;
4794;SDS011;2411;47.060;15.064;2022-08-23T17:46:36;3.70;;;1.73;;
4794;SDS011;2411;47.060;15.064;2022-08-23T17:49:05;1.60;;;1.50;;
4794;SDS011;2411;47.060;15.064;2022-08-23T17:51:33;8.53;;;1.87;;
4794;SDS011;2411;47.060;15.064;2022-08-23T17:54:01;1.87;;;1.77;;
4794;SDS011;2411;47.060;15.064;2022-08-23T17:56:32;1.80;;;1.70;;
4794;SDS011;2411;47.060;15.064;2022-08-23T17:58:59;1.97;;;1.77;;
4794;SDS011;2411;47.060;15.064;2022-08-23T18:01:27;1.50;;;1.40;;